sensor_id;sensor_type;location;lat;lon;timestamp;temperature;humidity
46898;DHT22;32646;50.958;6.258;2023-08-06T00:00:44;14.30;99.90
46898;DHT22;32646;50.958;6.258;2023-08-06T00:03:11;14.30;99.90
46898;DHT22;32646;50.958;6.258;2023-08-06T00:05:41;14.40;99.90
46898;DHT22;32646;50.958;6.258;2023-08-06T00:08:08;14.30;99.90
46898;DHT22;32646;50.958;6.258;2023-08-06T00:10:34;14.20;99.90
46898;DHT22;32646;50.958;6.258;2023-08-06T00:13:01;14.20;99.90
46898;DHT22;32646;50.958;6.258;2023-08-06T00:15:28;14.10;99.90
46898;DHT22;32646;50.958;6.258;2023-08-06T00:17:54;14.00;99.90
46898;DHT22;32646;50.958;6.258;2023-08-06T00:20:21;14.00;99.90
46898;DHT22;32646;50.958;6.258;2023-08-06T00:22:48;13.90;99.90
46898;DHT22;32646;50.958;6.258;2023-08-06T00:25:14;14.00;99.90
46898;DHT22;32646;50.958;6.258;2023-08-06T00:27:41;14.00;99.90
46898;DHT22;32646;50.958;6.258;2023-08-06T00:30:07;14.10;99.90
46898;DHT22;32646;50.958;6.258;2023-08-06T00:32:34;14.20;99.90
46898;DHT22;32646;50.958;6.258;2023-08-06T00:35:01;14.20;99.90
46898;DHT22;32646;50.958;6.258;2023-08-06T00:37:27;14.20;99.90
46898;DHT22;32646;50.958;6.258;2023-08-06T00:39:54;14.20;99.90
46898;DHT22;32646;50.958;6.258;2023-08-06T00:42:20;14.10;99.90
46898;DHT22;32646;50.958;6.258;2023-08-06T00:44:47;14.10;99.90
46898;DHT22;32646;50.958;6.258;2023-08-06T00:47:14;14.10;99.90
46898;DHT22;32646;50.958;6.258;2023-08-06T00:49:41;14.10;99.90
46898;DHT22;32646;50.958;6.258;2023-08-06T00:52:08;14.10;99.90
46898;DHT22;32646;50.958;6.258;2023-08-06T00:54:35;14.10;99.90
46898;DHT22;32646;50.958;6.258;2023-08-06T00:57:02;14.10;99.90
46898;DHT22;32646;50.958;6.258;2023-08-06T00:59:31;14.10;99.90
46898;DHT22;32646;50.958;6.258;2023-08-06T01:01:58;14.10;99.90
46898;DHT22;32646;50.958;6.258;2023-08-06T01:04:24;14.00;99.90
46898;DHT22;32646;50.958;6.258;2023-08-06T01:07:21;14.00;99.90
46898;DHT22;32646;50.958;6.258;2023-08-06T01:10:07;14.00;99.90
46898;DHT22;32646;50.958;6.258;2023-08-06T01:15:24;13.90;99.90
46898;DHT22;32646;50.958;6.258;2023-08-06T01:17:52;13.80;99.90
46898;DHT22;32646;50.958;6.258;2023-08-06T01:20:19;13.80;99.90
46898;DHT22;32646;50.958;6.258;2023-08-06T01:22:46;13.80;99.90
46898;DHT22;32646;50.958;6.258;2023-08-06T01:25:15;13.80;99.90
46898;DHT22;32646;50.958;6.258;2023-08-06T01:27:48;13.80;99.90
46898;DHT22;32646;50.958;6.258;2023-08-06T01:30:25;13.80;99.90
46898;DHT22;32646;50.958;6.258;2023-08-06T01:32:58;13.80;99.90
46898;DHT22;32646;50.958;6.258;2023-08-06T01:35:27;13.70;99.90
46898;DHT22;32646;50.958;6.258;2023-08-06T01:37:54;13.70;99.90
46898;DHT22;32646;50.958;6.258;2023-08-06T01:40:20;13.70;99.90
46898;DHT22;32646;50.958;6.258;2023-08-06T01:42:47;13.70;99.90
46898;DHT22;32646;50.958;6.258;2023-08-06T01:45:14;13.60;99.90
46898;DHT22;32646;50.958;6.258;2023-08-06T01:47:40;13.60;99.90
46898;DHT22;32646;50.958;6.258;2023-08-06T01:50:07;13.60;99.90
46898;DHT22;32646;50.958;6.258;2023-08-06T01:52:34;13.60;99.90
46898;DHT22;32646;50.958;6.258;2023-08-06T01:55:00;13.60;99.90
46898;DHT22;32646;50.958;6.258;2023-08-06T01:57:27;13.70;99.90
46898;DHT22;32646;50.958;6.258;2023-08-06T01:59:54;13.70;99.90
46898;DHT22;32646;50.958;6.258;2023-08-06T02:02:21;13.70;99.90
46898;DHT22;32646;50.958;6.258;2023-08-06T02:04:47;13.70;99.90
46898;DHT22;32646;50.958;6.258;2023-08-06T02:07:14;13.70;99.90
46898;DHT22;32646;50.958;6.258;2023-08-06T02:09:41;13.70;99.90
46898;DHT22;32646;50.958;6.258;2023-08-06T02:12:07;13.70;99.90
46898;DHT22;32646;50.958;6.258;2023-08-06T02:14:34;13.80;99.90
46898;DHT22;32646;50.958;6.258;2023-08-06T02:17:00;13.80;99.90
46898;DHT22;32646;50.958;6.258;2023-08-06T02:19:27;13.80;99.90
46898;DHT22;32646;50.958;6.258;2023-08-06T02:21:54;13.80;99.90
46898;DHT22;32646;50.958;6.258;2023-08-06T02:24:21;13.80;99.90
46898;DHT22;32646;50.958;6.258;2023-08-06T02:26:47;13.90;99.90
46898;DHT22;32646;50.958;6.258;2023-08-06T02:29:14;13.90;99.90
46898;DHT22;32646;50.958;6.258;2023-08-06T02:31:40;13.90;99.90
46898;DHT22;32646;50.958;6.258;2023-08-06T02:34:07;14.00;99.90
46898;DHT22;32646;50.958;6.258;2023-08-06T02:36:33;14.00;99.90
46898;DHT22;32646;50.958;6.258;2023-08-06T02:39:00;14.00;99.90
46898;DHT22;32646;50.958;6.258;2023-08-06T02:41:27;13.90;99.90
46898;DHT22;32646;50.958;6.258;2023-08-06T02:43:53;13.90;99.90
46898;DHT22;32646;50.958;6.258;2023-08-06T02:46:20;13.90;99.90
46898;DHT22;32646;50.958;6.258;2023-08-06T02:48:46;14.00;99.90
46898;DHT22;32646;50.958;6.258;2023-08-06T02:51:13;14.00;99.90
46898;DHT22;32646;50.958;6.258;2023-08-06T02:53:39;14.00;99.90
46898;DHT22;32646;50.958;6.258;2023-08-06T02:56:06;14.10;99.90
46898;DHT22;32646;50.958;6.258;2023-08-06T02:58:32;14.00;99.90
46898;DHT22;32646;50.958;6.258;2023-08-06T03:01:01;14.00;99.90
46898;DHT22;32646;50.958;6.258;2023-08-06T03:03:28;14.00;99.90
46898;DHT22;32646;50.958;6.258;2023-08-06T03:05:54;14.00;99.90
46898;DHT22;32646;50.958;6.258;2023-08-06T03:08:21;14.00;99.90
46898;DHT22;32646;50.958;6.258;2023-08-06T03:10:48;14.10;99.90
46898;DHT22;32646;50.958;6.258;2023-08-06T03:13:16;14.00;99.90
46898;DHT22;32646;50.958;6.258;2023-08-06T03:15:43;14.10;99.90
46898;DHT22;32646;50.958;6.258;2023-08-06T03:18:17;14.10;99.90
46898;DHT22;32646;50.958;6.258;2023-08-06T03:20:44;14.10;99.90
46898;DHT22;32646;50.958;6.258;2023-08-06T03:23:11;14.10;99.90
46898;DHT22;32646;50.958;6.258;2023-08-06T03:25:40;14.10;99.90
46898;DHT22;32646;50.958;6.258;2023-08-06T03:28:06;14.10;99.90
46898;DHT22;32646;50.958;6.258;2023-08-06T03:30:33;14.00;99.90
46898;DHT22;32646;50.958;6.258;2023-08-06T03:33:00;14.00;99.90
46898;DHT22;32646;50.958;6.258;2023-08-06T03:35:26;14.00;99.90
46898;DHT22;32646;50.958;6.258;2023-08-06T03:37:53;13.90;99.90
46898;DHT22;32646;50.958;6.258;2023-08-06T03:40:19;14.00;99.90
46898;DHT22;32646;50.958;6.258;2023-08-06T03:42:46;14.00;99.90
46898;DHT22;32646;50.958;6.258;2023-08-06T03:45:13;13.90;99.90
46898;DHT22;32646;50.958;6.258;2023-08-06T03:47:40;13.90;99.90
46898;DHT22;32646;50.958;6.258;2023-08-06T03:50:07;13.90;99.90
46898;DHT22;32646;50.958;6.258;2023-08-06T03:52:33;14.00;99.90
46898;DHT22;32646;50.958;6.258;2023-08-06T03:55:00;14.00;99.90
46898;DHT22;32646;50.958;6.258;2023-08-06T03:57:26;13.90;99.90
46898;DHT22;32646;50.958;6.258;2023-08-06T03:59:53;14.00;99.90
46898;DHT22;32646;50.958;6.258;2023-08-06T04:02:21;14.00;99.90
46898;DHT22;32646;50.958;6.258;2023-08-06T04:04:48;14.00;99.90
46898;DHT22;32646;50.958;6.258;2023-08-06T04:07:15;14.00;99.90
46898;DHT22;32646;50.958;6.258;2023-08-06T04:09:56;14.00;99.90
46898;DHT22;32646;50.958;6.258;2023-08-06T04:12:23;14.00;99.90
46898;DHT22;32646;50.958;6.258;2023-08-06T04:14:51;14.00;99.90
46898;DHT22;32646;50.958;6.258;2023-08-06T04:17:18;14.00;99.90
46898;DHT22;32646;50.958;6.258;2023-08-06T04:19:45;14.10;99.90
46898;DHT22;32646;50.958;6.258;2023-08-06T04:22:12;14.10;99.90
46898;DHT22;32646;50.958;6.258;2023-08-06T04:24:39;14.10;99.90
46898;DHT22;32646;50.958;6.258;2023-08-06T04:27:05;14.10;99.90
46898;DHT22;32646;50.958;6.258;2023-08-06T04:29:32;14.20;99.90
46898;DHT22;32646;50.958;6.258;2023-08-06T04:31:58;14.10;99.90
46898;DHT22;32646;50.958;6.258;2023-08-06T04:34:25;14.10;99.90
46898;DHT22;32646;50.958;6.258;2023-08-06T04:36:52;14.20;99.90
46898;DHT22;32646;50.958;6.258;2023-08-06T04:39:18;14.10;99.90
46898;DHT22;32646;50.958;6.258;2023-08-06T04:41:45;14.10;99.90
46898;DHT22;32646;50.958;6.258;2023-08-06T04:44:11;14.10;99.90
46898;DHT22;32646;50.958;6.258;2023-08-06T04:46:38;14.10;99.90
46898;DHT22;32646;50.958;6.258;2023-08-06T04:49:05;14.10;99.90
46898;DHT22;32646;50.958;6.258;2023-08-06T04:51:31;14.10;99.90
46898;DHT22;32646;50.958;6.258;2023-08-06T04:53:58;14.20;99.90
46898;DHT22;32646;50.958;6.258;2023-08-06T04:56:25;14.30;99.90
46898;DHT22;32646;50.958;6.258;2023-08-06T04:58:51;14.30;99.90
46898;DHT22;32646;50.958;6.258;2023-08-06T05:01:18;14.30;99.90
46898;DHT22;32646;50.958;6.258;2023-08-06T05:03:45;14.30;99.90
46898;DHT22;32646;50.958;6.258;2023-08-06T05:06:11;14.30;99.90
46898;DHT22;32646;50.958;6.258;2023-08-06T05:08:38;14.20;99.90
46898;DHT22;32646;50.958;6.258;2023-08-06T05:11:04;14.30;99.90
46898;DHT22;32646;50.958;6.258;2023-08-06T05:13:31;14.30;99.90
46898;DHT22;32646;50.958;6.258;2023-08-06T05:15:58;14.40;99.90
46898;DHT22;32646;50.958;6.258;2023-08-06T05:18:24;14.40;99.90
46898;DHT22;32646;50.958;6.258;2023-08-06T05:20:51;14.40;99.90
46898;DHT22;32646;50.958;6.258;2023-08-06T05:23:18;14.40;99.90
46898;DHT22;32646;50.958;6.258;2023-08-06T05:25:44;14.30;99.90
46898;DHT22;32646;50.958;6.258;2023-08-06T05:28:11;14.30;99.90
46898;DHT22;32646;50.958;6.258;2023-08-06T05:30:41;14.30;99.90
46898;DHT22;32646;50.958;6.258;2023-08-06T05:33:07;14.30;99.90
46898;DHT22;32646;50.958;6.258;2023-08-06T05:35:34;14.40;99.90
46898;DHT22;32646;50.958;6.258;2023-08-06T05:38:00;14.40;99.90
46898;DHT22;32646;50.958;6.258;2023-08-06T05:40:27;14.30;99.90
46898;DHT22;32646;50.958;6.258;2023-08-06T05:42:54;14.30;99.90
46898;DHT22;32646;50.958;6.258;2023-08-06T05:45:21;14.30;99.90
46898;DHT22;32646;50.958;6.258;2023-08-06T05:47:48;14.30;99.90
46898;DHT22;32646;50.958;6.258;2023-08-06T05:50:15;14.30;99.90
46898;DHT22;32646;50.958;6.258;2023-08-06T05:52:41;14.30;99.90
46898;DHT22;32646;50.958;6.258;2023-08-06T05:55:08;14.30;99.90
46898;DHT22;32646;50.958;6.258;2023-08-06T05:57:35;14.30;99.90
46898;DHT22;32646;50.958;6.258;2023-08-06T06:00:02;14.40;99.90
46898;DHT22;32646;50.958;6.258;2023-08-06T06:02:28;14.50;99.90
46898;DHT22;32646;50.958;6.258;2023-08-06T06:04:55;14.50;99.90
46898;DHT22;32646;50.958;6.258;2023-08-06T06:07:22;14.30;99.90
46898;DHT22;32646;50.958;6.258;2023-08-06T06:09:48;14.40;99.90
46898;DHT22;32646;50.958;6.258;2023-08-06T06:12:15;14.40;99.90
46898;DHT22;32646;50.958;6.258;2023-08-06T06:14:41;14.40;99.90
46898;DHT22;32646;50.958;6.258;2023-08-06T06:17:08;14.30;99.90
46898;DHT22;32646;50.958;6.258;2023-08-06T06:19:35;14.40;99.90
46898;DHT22;32646;50.958;6.258;2023-08-06T06:22:01;14.40;99.90
46898;DHT22;32646;50.958;6.258;2023-08-06T06:24:28;14.40;99.90
46898;DHT22;32646;50.958;6.258;2023-08-06T06:26:54;14.40;99.90
46898;DHT22;32646;50.958;6.258;2023-08-06T06:29:21;14.40;99.90
46898;DHT22;32646;50.958;6.258;2023-08-06T06:31:48;14.40;99.90
46898;DHT22;32646;50.958;6.258;2023-08-06T06:34:14;14.40;99.90
46898;DHT22;32646;50.958;6.258;2023-08-06T06:36:41;14.50;99.90
46898;DHT22;32646;50.958;6.258;2023-08-06T06:39:08;14.50;99.90
46898;DHT22;32646;50.958;6.258;2023-08-06T06:41:34;14.60;99.90
46898;DHT22;32646;50.958;6.258;2023-08-06T06:44:01;14.60;99.90
46898;DHT22;32646;50.958;6.258;2023-08-06T06:46:27;14.60;99.90
46898;DHT22;32646;50.958;6.258;2023-08-06T06:48:54;14.60;99.90
46898;DHT22;32646;50.958;6.258;2023-08-06T06:51:21;14.70;99.90
46898;DHT22;32646;50.958;6.258;2023-08-06T06:53:47;14.70;99.90
46898;DHT22;32646;50.958;6.258;2023-08-06T06:56:14;14.80;99.90
46898;DHT22;32646;50.958;6.258;2023-08-06T06:58:40;14.90;99.90
46898;DHT22;32646;50.958;6.258;2023-08-06T07:01:07;14.90;99.90
46898;DHT22;32646;50.958;6.258;2023-08-06T07:03:34;15.00;99.90
46898;DHT22;32646;50.958;6.258;2023-08-06T07:06:01;15.00;99.90
46898;DHT22;32646;50.958;6.258;2023-08-06T07:08:27;15.00;99.90
46898;DHT22;32646;50.958;6.258;2023-08-06T07:11:05;15.10;99.90
46898;DHT22;32646;50.958;6.258;2023-08-06T07:13:32;15.10;99.90
46898;DHT22;32646;50.958;6.258;2023-08-06T07:15:59;15.10;99.90
46898;DHT22;32646;50.958;6.258;2023-08-06T07:18:25;15.10;99.90
46898;DHT22;32646;50.958;6.258;2023-08-06T07:20:53;15.20;99.90
46898;DHT22;32646;50.958;6.258;2023-08-06T07:23:26;15.20;99.90
46898;DHT22;32646;50.958;6.258;2023-08-06T07:25:52;15.20;99.90
46898;DHT22;32646;50.958;6.258;2023-08-06T07:28:19;15.20;99.90
46898;DHT22;32646;50.958;6.258;2023-08-06T07:30:46;15.20;99.90
46898;DHT22;32646;50.958;6.258;2023-08-06T07:33:13;15.30;99.90
46898;DHT22;32646;50.958;6.258;2023-08-06T07:35:39;15.30;99.90
46898;DHT22;32646;50.958;6.258;2023-08-06T07:38:06;15.40;99.90
46898;DHT22;32646;50.958;6.258;2023-08-06T07:40:35;15.40;99.90
46898;DHT22;32646;50.958;6.258;2023-08-06T07:43:02;15.50;99.90
46898;DHT22;32646;50.958;6.258;2023-08-06T07:45:32;15.50;99.90
46898;DHT22;32646;50.958;6.258;2023-08-06T07:47:59;15.40;99.90
46898;DHT22;32646;50.958;6.258;2023-08-06T07:50:26;15.30;99.90
46898;DHT22;32646;50.958;6.258;2023-08-06T07:52:52;15.20;99.90
46898;DHT22;32646;50.958;6.258;2023-08-06T07:55:19;15.00;99.90
46898;DHT22;32646;50.958;6.258;2023-08-06T07:57:46;15.00;99.90
46898;DHT22;32646;50.958;6.258;2023-08-06T08:00:12;15.00;99.90
46898;DHT22;32646;50.958;6.258;2023-08-06T08:02:39;15.10;99.90
46898;DHT22;32646;50.958;6.258;2023-08-06T08:05:06;15.10;99.90
46898;DHT22;32646;50.958;6.258;2023-08-06T08:07:33;15.10;99.90
46898;DHT22;32646;50.958;6.258;2023-08-06T08:09:59;15.00;99.90
46898;DHT22;32646;50.958;6.258;2023-08-06T08:12:26;14.90;99.90
46898;DHT22;32646;50.958;6.258;2023-08-06T08:14:52;14.90;99.90
46898;DHT22;32646;50.958;6.258;2023-08-06T08:17:19;14.80;99.90
46898;DHT22;32646;50.958;6.258;2023-08-06T08:19:46;14.70;99.90
46898;DHT22;32646;50.958;6.258;2023-08-06T08:22:12;14.70;99.90
46898;DHT22;32646;50.958;6.258;2023-08-06T08:24:39;14.70;99.90
46898;DHT22;32646;50.958;6.258;2023-08-06T08:27:06;14.70;99.90
46898;DHT22;32646;50.958;6.258;2023-08-06T08:29:32;14.70;99.90
46898;DHT22;32646;50.958;6.258;2023-08-06T08:31:59;14.60;99.90
46898;DHT22;32646;50.958;6.258;2023-08-06T08:34:25;14.50;99.90
46898;DHT22;32646;50.958;6.258;2023-08-06T08:36:52;14.40;99.90
46898;DHT22;32646;50.958;6.258;2023-08-06T08:39:18;14.30;99.90
46898;DHT22;32646;50.958;6.258;2023-08-06T08:41:45;14.20;99.90
46898;DHT22;32646;50.958;6.258;2023-08-06T08:44:14;14.20;99.90
46898;DHT22;32646;50.958;6.258;2023-08-06T08:46:43;14.10;99.90
46898;DHT22;32646;50.958;6.258;2023-08-06T08:49:10;14.00;99.90
46898;DHT22;32646;50.958;6.258;2023-08-06T08:51:38;13.80;99.90
46898;DHT22;32646;50.958;6.258;2023-08-06T08:54:05;13.80;99.90
46898;DHT22;32646;50.958;6.258;2023-08-06T08:56:33;13.80;99.90
46898;DHT22;32646;50.958;6.258;2023-08-06T08:59:00;13.70;99.90
46898;DHT22;32646;50.958;6.258;2023-08-06T09:01:27;13.70;99.90
46898;DHT22;32646;50.958;6.258;2023-08-06T09:03:56;13.70;99.90
46898;DHT22;32646;50.958;6.258;2023-08-06T09:06:26;13.70;99.90
46898;DHT22;32646;50.958;6.258;2023-08-06T09:09:02;13.70;99.90
46898;DHT22;32646;50.958;6.258;2023-08-06T09:11:36;13.60;99.90
46898;DHT22;32646;50.958;6.258;2023-08-06T09:14:03;13.60;99.90
46898;DHT22;32646;50.958;6.258;2023-08-06T09:16:30;13.70;99.90
46898;DHT22;32646;50.958;6.258;2023-08-06T09:19:10;13.70;99.90
46898;DHT22;32646;50.958;6.258;2023-08-06T09:21:38;13.70;99.90
46898;DHT22;32646;50.958;6.258;2023-08-06T09:24:12;13.60;99.90
46898;DHT22;32646;50.958;6.258;2023-08-06T09:26:45;13.70;99.90
46898;DHT22;32646;50.958;6.258;2023-08-06T09:29:12;13.60;99.90
46898;DHT22;32646;50.958;6.258;2023-08-06T09:31:49;13.50;99.90
46898;DHT22;32646;50.958;6.258;2023-08-06T09:34:18;13.50;99.90
46898;DHT22;32646;50.958;6.258;2023-08-06T09:36:49;13.50;99.90
46898;DHT22;32646;50.958;6.258;2023-08-06T09:39:21;13.40;99.90
46898;DHT22;32646;50.958;6.258;2023-08-06T09:41:56;13.50;99.90
46898;DHT22;32646;50.958;6.258;2023-08-06T09:44:23;13.50;99.90
46898;DHT22;32646;50.958;6.258;2023-08-06T09:46:52;13.50;99.90
46898;DHT22;32646;50.958;6.258;2023-08-06T09:49:21;13.50;99.90
46898;DHT22;32646;50.958;6.258;2023-08-06T09:51:50;13.50;99.90
46898;DHT22;32646;50.958;6.258;2023-08-06T09:54:18;13.50;99.90
46898;DHT22;32646;50.958;6.258;2023-08-06T09:56:54;13.50;99.90
46898;DHT22;32646;50.958;6.258;2023-08-06T09:59:21;13.60;99.90
46898;DHT22;32646;50.958;6.258;2023-08-06T10:01:49;13.70;99.90
46898;DHT22;32646;50.958;6.258;2023-08-06T10:04:15;13.70;99.90
46898;DHT22;32646;50.958;6.258;2023-08-06T10:06:50;13.60;99.90
46898;DHT22;32646;50.958;6.258;2023-08-06T10:09:17;13.60;99.90
46898;DHT22;32646;50.958;6.258;2023-08-06T10:11:49;13.60;99.90
46898;DHT22;32646;50.958;6.258;2023-08-06T10:14:30;13.70;99.90
46898;DHT22;32646;50.958;6.258;2023-08-06T10:16:57;13.70;99.90
46898;DHT22;32646;50.958;6.258;2023-08-06T10:19:25;13.70;99.90
46898;DHT22;32646;50.958;6.258;2023-08-06T10:22:13;13.70;99.90
46898;DHT22;32646;50.958;6.258;2023-08-06T10:27:33;13.70;99.90
46898;DHT22;32646;50.958;6.258;2023-08-06T10:30:29;13.80;99.90
46898;DHT22;32646;50.958;6.258;2023-08-06T10:32:57;13.90;99.90
46898;DHT22;32646;50.958;6.258;2023-08-06T10:35:36;13.90;99.90
46898;DHT22;32646;50.958;6.258;2023-08-06T10:38:14;14.10;99.90
46898;DHT22;32646;50.958;6.258;2023-08-06T10:40:50;14.30;99.90
46898;DHT22;32646;50.958;6.258;2023-08-06T10:43:27;14.30;99.90
46898;DHT22;32646;50.958;6.258;2023-08-06T10:45:54;14.40;99.90
46898;DHT22;32646;50.958;6.258;2023-08-06T10:48:35;14.40;99.90
46898;DHT22;32646;50.958;6.258;2023-08-06T10:51:03;14.40;99.90
46898;DHT22;32646;50.958;6.258;2023-08-06T10:53:29;14.30;99.90
46898;DHT22;32646;50.958;6.258;2023-08-06T10:56:00;14.20;99.90
46898;DHT22;32646;50.958;6.258;2023-08-06T10:58:33;14.10;99.90
46898;DHT22;32646;50.958;6.258;2023-08-06T11:01:00;14.10;99.90
46898;DHT22;32646;50.958;6.258;2023-08-06T11:03:28;14.20;99.90
46898;DHT22;32646;50.958;6.258;2023-08-06T11:05:55;14.30;99.90
46898;DHT22;32646;50.958;6.258;2023-08-06T11:08:29;14.20;99.90
46898;DHT22;32646;50.958;6.258;2023-08-06T11:11:11;14.40;99.90
46898;DHT22;32646;50.958;6.258;2023-08-06T11:13:45;14.50;99.90
46898;DHT22;32646;50.958;6.258;2023-08-06T11:16:19;14.50;99.90
46898;DHT22;32646;50.958;6.258;2023-08-06T11:18:46;14.60;99.90
46898;DHT22;32646;50.958;6.258;2023-08-06T11:21:13;14.60;99.90
46898;DHT22;32646;50.958;6.258;2023-08-06T11:23:40;14.70;99.90
46898;DHT22;32646;50.958;6.258;2023-08-06T11:26:07;14.70;99.90
46898;DHT22;32646;50.958;6.258;2023-08-06T11:28:34;14.60;99.90
46898;DHT22;32646;50.958;6.258;2023-08-06T11:31:01;14.70;99.90
46898;DHT22;32646;50.958;6.258;2023-08-06T11:33:28;14.80;99.90
46898;DHT22;32646;50.958;6.258;2023-08-06T11:35:55;14.80;99.90
46898;DHT22;32646;50.958;6.258;2023-08-06T11:38:25;15.00;99.90
46898;DHT22;32646;50.958;6.258;2023-08-06T11:40:52;15.10;99.90
46898;DHT22;32646;50.958;6.258;2023-08-06T11:43:19;15.20;99.90
46898;DHT22;32646;50.958;6.258;2023-08-06T11:45:46;15.10;99.90
46898;DHT22;32646;50.958;6.258;2023-08-06T11:48:13;15.20;99.90
46898;DHT22;32646;50.958;6.258;2023-08-06T11:50:42;15.20;99.90
46898;DHT22;32646;50.958;6.258;2023-08-06T11:53:11;15.20;99.90
46898;DHT22;32646;50.958;6.258;2023-08-06T11:55:38;15.20;99.90
46898;DHT22;32646;50.958;6.258;2023-08-06T11:58:05;15.10;99.90
46898;DHT22;32646;50.958;6.258;2023-08-06T12:00:32;15.00;99.90
46898;DHT22;32646;50.958;6.258;2023-08-06T12:02:59;14.90;99.90
46898;DHT22;32646;50.958;6.258;2023-08-06T12:05:37;15.00;99.90
46898;DHT22;32646;50.958;6.258;2023-08-06T12:08:04;15.10;99.90
46898;DHT22;32646;50.958;6.258;2023-08-06T12:10:32;15.10;99.90
46898;DHT22;32646;50.958;6.258;2023-08-06T12:13:00;15.20;99.90
46898;DHT22;32646;50.958;6.258;2023-08-06T12:15:26;15.20;99.90
46898;DHT22;32646;50.958;6.258;2023-08-06T12:17:53;15.10;99.90
46898;DHT22;32646;50.958;6.258;2023-08-06T12:20:21;15.00;99.90
46898;DHT22;32646;50.958;6.258;2023-08-06T12:22:47;15.00;99.90
46898;DHT22;32646;50.958;6.258;2023-08-06T12:25:14;15.00;99.90
46898;DHT22;32646;50.958;6.258;2023-08-06T12:27:59;15.10;99.90
46898;DHT22;32646;50.958;6.258;2023-08-06T12:31:04;15.20;99.90
46898;DHT22;32646;50.958;6.258;2023-08-06T12:33:44;15.30;99.90
46898;DHT22;32646;50.958;6.258;2023-08-06T12:36:10;15.30;99.90
46898;DHT22;32646;50.958;6.258;2023-08-06T12:38:40;15.30;99.90
46898;DHT22;32646;50.958;6.258;2023-08-06T12:41:29;15.30;99.90
46898;DHT22;32646;50.958;6.258;2023-08-06T12:44:03;15.30;99.90
46898;DHT22;32646;50.958;6.258;2023-08-06T12:46:41;15.30;99.90
46898;DHT22;32646;50.958;6.258;2023-08-06T12:49:09;15.30;99.90
46898;DHT22;32646;50.958;6.258;2023-08-06T12:51:36;15.30;99.90
46898;DHT22;32646;50.958;6.258;2023-08-06T12:54:03;15.30;99.90
46898;DHT22;32646;50.958;6.258;2023-08-06T12:56:29;15.40;99.90
46898;DHT22;32646;50.958;6.258;2023-08-06T12:58:56;15.70;99.90
46898;DHT22;32646;50.958;6.258;2023-08-06T13:01:22;15.60;99.90
46898;DHT22;32646;50.958;6.258;2023-08-06T13:03:49;15.50;99.90
46898;DHT22;32646;50.958;6.258;2023-08-06T13:06:16;15.60;99.90
46898;DHT22;32646;50.958;6.258;2023-08-06T13:08:42;15.50;99.90
46898;DHT22;32646;50.958;6.258;2023-08-06T13:11:09;15.40;99.90
46898;DHT22;32646;50.958;6.258;2023-08-06T13:13:35;15.30;99.90
46898;DHT22;32646;50.958;6.258;2023-08-06T13:16:02;15.20;99.90
46898;DHT22;32646;50.958;6.258;2023-08-06T13:18:29;14.90;99.90
46898;DHT22;32646;50.958;6.258;2023-08-06T13:20:56;14.80;99.90
46898;DHT22;32646;50.958;6.258;2023-08-06T13:23:22;14.90;99.90
46898;DHT22;32646;50.958;6.258;2023-08-06T13:25:49;15.00;99.90
46898;DHT22;32646;50.958;6.258;2023-08-06T13:28:15;15.00;99.90
46898;DHT22;32646;50.958;6.258;2023-08-06T13:30:42;15.10;99.90
46898;DHT22;32646;50.958;6.258;2023-08-06T13:33:10;15.10;99.90
46898;DHT22;32646;50.958;6.258;2023-08-06T13:35:38;15.00;99.90
46898;DHT22;32646;50.958;6.258;2023-08-06T13:38:04;15.00;99.90
46898;DHT22;32646;50.958;6.258;2023-08-06T13:40:32;14.90;99.90
46898;DHT22;32646;50.958;6.258;2023-08-06T13:42:59;14.90;99.90
46898;DHT22;32646;50.958;6.258;2023-08-06T13:45:26;15.00;99.90
46898;DHT22;32646;50.958;6.258;2023-08-06T13:47:53;14.90;99.90
46898;DHT22;32646;50.958;6.258;2023-08-06T13:50:20;15.00;99.90
46898;DHT22;32646;50.958;6.258;2023-08-06T13:52:46;15.00;99.90
46898;DHT22;32646;50.958;6.258;2023-08-06T13:55:13;15.00;99.90
46898;DHT22;32646;50.958;6.258;2023-08-06T13:57:40;15.10;99.90
46898;DHT22;32646;50.958;6.258;2023-08-06T14:00:07;15.00;99.90
46898;DHT22;32646;50.958;6.258;2023-08-06T14:02:33;14.90;99.90
46898;DHT22;32646;50.958;6.258;2023-08-06T14:05:00;14.90;99.90
46898;DHT22;32646;50.958;6.258;2023-08-06T14:07:27;14.90;99.90
46898;DHT22;32646;50.958;6.258;2023-08-06T14:09:53;14.90;99.90
46898;DHT22;32646;50.958;6.258;2023-08-06T14:12:20;15.00;99.90
46898;DHT22;32646;50.958;6.258;2023-08-06T14:14:46;14.90;99.90
46898;DHT22;32646;50.958;6.258;2023-08-06T14:17:13;14.90;99.90
46898;DHT22;32646;50.958;6.258;2023-08-06T14:19:39;15.00;99.90
46898;DHT22;32646;50.958;6.258;2023-08-06T14:22:06;14.90;99.90
46898;DHT22;32646;50.958;6.258;2023-08-06T14:24:33;14.90;99.90
46898;DHT22;32646;50.958;6.258;2023-08-06T14:26:59;15.00;99.90
46898;DHT22;32646;50.958;6.258;2023-08-06T14:29:26;15.00;99.90
46898;DHT22;32646;50.958;6.258;2023-08-06T14:31:52;15.10;99.90
46898;DHT22;32646;50.958;6.258;2023-08-06T14:34:19;15.00;99.90
46898;DHT22;32646;50.958;6.258;2023-08-06T14:36:45;15.10;99.90
46898;DHT22;32646;50.958;6.258;2023-08-06T14:39:12;15.10;99.90
46898;DHT22;32646;50.958;6.258;2023-08-06T14:41:39;15.10;99.90
46898;DHT22;32646;50.958;6.258;2023-08-06T14:44:05;15.10;99.90
46898;DHT22;32646;50.958;6.258;2023-08-06T14:46:32;15.10;99.90
46898;DHT22;32646;50.958;6.258;2023-08-06T14:48:58;15.10;99.90
46898;DHT22;32646;50.958;6.258;2023-08-06T14:51:25;15.10;99.90
46898;DHT22;32646;50.958;6.258;2023-08-06T14:53:52;15.10;99.90
46898;DHT22;32646;50.958;6.258;2023-08-06T14:56:18;15.10;99.90
46898;DHT22;32646;50.958;6.258;2023-08-06T14:58:45;15.10;99.90
46898;DHT22;32646;50.958;6.258;2023-08-06T15:01:12;15.10;99.90
46898;DHT22;32646;50.958;6.258;2023-08-06T15:03:39;15.10;99.90
46898;DHT22;32646;50.958;6.258;2023-08-06T15:06:06;15.10;99.90
46898;DHT22;32646;50.958;6.258;2023-08-06T15:08:41;15.00;99.90
46898;DHT22;32646;50.958;6.258;2023-08-06T15:11:07;15.00;99.90
46898;DHT22;32646;50.958;6.258;2023-08-06T15:13:34;15.00;99.90
46898;DHT22;32646;50.958;6.258;2023-08-06T15:16:00;15.10;99.90
46898;DHT22;32646;50.958;6.258;2023-08-06T15:18:27;15.20;99.90
46898;DHT22;32646;50.958;6.258;2023-08-06T15:20:54;15.10;99.90
46898;DHT22;32646;50.958;6.258;2023-08-06T15:23:20;15.20;99.90
46898;DHT22;32646;50.958;6.258;2023-08-06T15:25:47;15.10;99.90
46898;DHT22;32646;50.958;6.258;2023-08-06T15:28:14;15.10;99.90
46898;DHT22;32646;50.958;6.258;2023-08-06T15:30:50;15.00;99.90
46898;DHT22;32646;50.958;6.258;2023-08-06T15:33:18;14.90;99.90
46898;DHT22;32646;50.958;6.258;2023-08-06T15:35:54;14.90;99.90
46898;DHT22;32646;50.958;6.258;2023-08-06T15:38:29;14.90;99.90
46898;DHT22;32646;50.958;6.258;2023-08-06T15:40:56;14.90;99.90